Time;durP1;ratioP1;P1;durP2;ratioP2;P2;SDS_P1;SDS_P2;PMS_P1;PMS_P2;Temp;Humidity;BMP_temperature;BMP_pressure;BME280_temperature;BME280_humidity;BME280_pressure;Samples;Min_cycle;Max_cycle;Signal;HPM_P1;HPM_P2
2021/10/13 00:00:14;;;;;;;2.90;1.90;;;9.30;99.90;;;;;;4979272;28;20019;-38
2021/10/13 00:02:42;;;;;;;5.40;1.70;;;9.30;99.90;;;;;;4968896;28;20428;-37
2021/10/13 00:05:09;;;;;;;2.28;1.30;;;9.40;99.90;;;;;;4979999;28;20055;-39
2021/10/13 00:07:34;;;;;;;4.10;1.55;;;9.40;99.90;;;;;;4968276;28;20035;-37
2021/10/13 00:10:00;;;;;;;3.53;1.35;;;9.40;99.90;;;;;;4980428;28;20497;-37
2021/10/13 00:12:27;;;;;;;2.53;1.30;;;9.40;99.90;;;;;;4968735;28;20056;-37
2021/10/13 00:14:53;;;;;;;4.07;1.13;;;9.40;99.90;;;;;;4979157;28;20037;-37
2021/10/13 00:17:19;;;;;;;3.78;1.42;;;9.40;99.90;;;;;;4968875;28;20031;-38
2021/10/13 00:19:44;;;;;;;5.95;1.60;;;9.30;99.90;;;;;;4979050;28;20023;-38
2021/10/13 00:22:10;;;;;;;3.28;1.65;;;9.30;99.90;;;;;;4968704;28;20390;-37
2021/10/13 00:24:35;;;;;;;7.00;1.55;;;9.30;99.90;;;;;;4977197;28;20026;-37
2021/10/13 00:27:01;;;;;;;4.85;1.58;;;9.30;99.90;;;;;;4971535;28;20493;-38
2021/10/13 00:29:27;;;;;;;3.60;1.67;;;9.20;99.90;;;;;;4973107;28;20022;-37
2021/10/13 00:31:53;;;;;;;3.78;1.75;;;9.20;99.90;;;;;;4974781;28;20442;-38
2021/10/13 00:34:19;;;;;;;2.85;1.67;;;9.20;99.90;;;;;;4971981;28;20043;-36
2021/10/13 00:36:44;;;;;;;3.13;1.52;;;9.10;99.90;;;;;;4975515;28;20070;-38
2021/10/13 00:39:10;;;;;;;4.55;1.90;;;9.10;99.90;;;;;;4969751;28;20697;-37
2021/10/13 00:41:36;;;;;;;3.97;1.92;;;9.10;99.90;;;;;;4977681;28;20056;-37
2021/10/13 00:44:05;;;;;;;5.20;1.80;;;9.10;99.90;;;;;;4984590;28;20031;-38
2021/10/13 00:46:30;;;;;;;5.68;1.85;;;9.00;99.90;;;;;;4976453;28;20037;-37
2021/10/13 00:48:56;;;;;;;9.35;2.30;;;9.10;99.90;;;;;;4986684;28;20030;-37
2021/10/13 00:51:21;;;;;;;9.10;2.25;;;9.10;99.90;;;;;;4978526;28;20074;-37
2021/10/13 00:53:47;;;;;;;5.15;1.73;;;9.10;99.90;;;;;;4968105;28;20097;-36
2021/10/13 00:56:13;;;;;;;4.45;1.70;;;9.10;99.90;;;;;;4979996;28;20537;-36
2021/10/13 00:58:38;;;;;;;5.28;1.90;;;9.10;99.90;;;;;;4967754;28;20031;-37
2021/10/13 01:01:34;;;;;;;5.97;1.77;;;9.20;99.90;;;;;;4978932;28;20022;-38
2021/10/13 01:04:13;;;;;;;4.10;1.65;;;9.20;99.90;;;;;;4966914;28;20486;-37
2021/10/13 01:06:50;;;;;;;5.40;1.95;;;9.20;99.90;;;;;;4979346;28;20046;-37
2021/10/13 01:09:31;;;;;;;5.65;1.70;;;9.20;99.90;;;;;;4972020;28;20089;-37
2021/10/13 01:12:01;;;;;;;6.45;2.00;;;9.20;99.90;;;;;;4983161;28;20031;-38
2021/10/13 01:14:46;;;;;;;6.35;1.77;;;9.30;99.90;;;;;;4971313;28;20617;-38
2021/10/13 01:17:26;;;;;;;3.67;1.70;;;9.30;99.90;;;;;;4983174;28;20019;-35
2021/10/13 01:20:23;;;;;;;3.58;1.88;;;9.30;99.90;;;;;;4972085;28;20050;-38
2021/10/13 01:23:05;;;;;;;6.93;1.70;;;9.30;99.90;;;;;;4982117;28;20577;-37
2021/10/13 01:25:36;;;;;;;4.30;1.63;;;9.30;99.90;;;;;;4971680;28;20031;-38
2021/10/13 01:28:06;;;;;;;5.00;1.50;;;9.40;99.90;;;;;;4982337;28;20050;-39
2021/10/13 01:30:36;;;;;;;4.43;1.90;;;9.40;99.90;;;;;;4972707;28;20109;-38
2021/10/13 01:33:28;;;;;;;5.28;1.85;;;9.40;99.90;;;;;;4981558;28;20371;-38
2021/10/13 01:36:11;;;;;;;5.05;2.03;;;9.40;99.90;;;;;;4972947;28;20025;-36
2021/10/13 01:38:45;;;;;;;4.13;1.70;;;9.30;99.90;;;;;;4979399;28;20516;-37
2021/10/13 01:41:13;;;;;;;3.67;1.63;;;9.30;99.90;;;;;;4989232;28;20492;-38
2021/10/13 01:43:42;;;;;;;5.65;1.90;;;9.20;99.90;;;;;;4985199;28;20030;-36
2021/10/13 01:46:09;;;;;;;4.10;1.50;;;9.30;99.90;;;;;;4988688;28;20026;-37
2021/10/13 01:48:35;;;;;;;3.33;1.48;;;9.20;99.90;;;;;;4979056;28;20029;-36
2021/10/13 01:51:02;;;;;;;5.40;1.70;;;9.20;99.90;;;;;;4990353;28;20034;-40
2021/10/13 01:53:28;;;;;;;4.88;1.60;;;9.20;99.90;;;;;;4977597;28;20018;-39
2021/10/13 01:55:57;;;;;;;4.20;1.65;;;9.10;99.90;;;;;;4990671;28;20045;-36
2021/10/13 01:58:25;;;;;;;4.43;1.52;;;9.10;99.90;;;;;;4978096;28;20465;-37
2021/10/13 02:00:51;;;;;;;6.78;2.30;;;9.00;99.90;;;;;;4989742;28;20049;-37
2021/10/13 02:03:25;;;;;;;4.03;1.60;;;9.10;99.90;;;;;;4978239;28;20161;-36
2021/10/13 02:05:54;;;;;;;2.67;1.30;;;9.00;99.90;;;;;;4970308;28;20090;-37
2021/10/13 02:08:22;;;;;;;6.88;2.08;;;9.00;99.90;;;;;;4981503;28;20073;-39
2021/10/13 02:10:53;;;;;;;4.35;1.60;;;9.00;99.90;;;;;;4971604;28;20027;-37
2021/10/13 02:13:29;;;;;;;4.13;1.50;;;8.90;99.90;;;;;;4979372;28;20080;-38
2021/10/13 02:15:55;;;;;;;4.10;1.50;;;8.90;99.90;;;;;;4971906;28;20033;-37
2021/10/13 02:18:24;;;;;;;5.15;1.80;;;9.00;99.90;;;;;;4978497;28;20022;-36
2021/10/13 02:20:50;;;;;;;6.47;1.75;;;8.90;99.90;;;;;;4972918;28;20034;-37
2021/10/13 02:23:18;;;;;;;4.85;1.60;;;8.90;99.90;;;;;;4976791;28;20026;-38
2021/10/13 02:25:48;;;;;;;2.83;1.55;;;8.90;99.90;;;;;;4975801;28;20455;-45
2021/10/13 02:28:24;;;;;;;3.20;1.38;;;8.90;99.90;;;;;;4973826;28;20088;-37
2021/10/13 02:30:50;;;;;;;3.85;1.58;;;9.00;99.90;;;;;;4976625;28;20299;-37
2021/10/13 02:33:15;;;;;;;2.63;1.40;;;9.00;99.90;;;;;;4973996;28;20039;-37
2021/10/13 02:35:41;;;;;;;4.30;1.52;;;9.10;99.90;;;;;;4977643;28;20082;-39
2021/10/13 02:38:06;;;;;;;4.28;1.30;;;9.10;99.90;;;;;;4971323;28;20023;-39
2021/10/13 02:40:32;;;;;;;2.70;1.35;;;9.20;99.90;;;;;;4980743;28;20043;-37
2021/10/13 02:42:58;;;;;;;5.00;1.80;;;9.20;99.90;;;;;;4975789;28;20029;-38
2021/10/13 02:45:23;;;;;;;3.47;1.45;;;9.30;99.90;;;;;;4978355;28;20113;-38
2021/10/13 02:48:00;;;;;;;2.92;1.50;;;9.30;99.90;;;;;;4989816;28;20477;-37
2021/10/13 02:50:48;;;;;;;5.35;1.58;;;9.40;99.90;;;;;;4977488;28;20053;-38
2021/10/13 02:53:56;;;;;;;4.07;1.60;;;9.40;99.90;;;;;;4987867;28;20387;-36
2021/10/13 02:56:25;;;;;;;3.83;2.08;;;9.40;99.90;;;;;;4949580;28;20078;-37
2021/10/13 02:58:58;;;;;;;3.67;1.70;;;9.40;99.90;;;;;;4971712;28;20027;-37
2021/10/13 03:01:30;;;;;;;5.45;2.03;;;9.40;99.90;;;;;;4969913;28;20031;-37
2021/10/13 03:03:59;;;;;;;4.45;1.95;;;9.50;99.90;;;;;;4971347;28;20031;-37
2021/10/13 03:06:38;;;;;;;4.78;2.13;;;9.50;99.90;;;;;;4980136;28;20050;-37
2021/10/13 03:09:06;;;;;;;5.10;2.30;;;9.50;99.90;;;;;;4971213;28;20030;-37
2021/10/13 03:11:33;;;;;;;5.53;1.88;;;9.50;99.90;;;;;;4980370;28;20023;-37
2021/10/13 03:14:00;;;;;;;4.90;1.55;;;9.50;99.90;;;;;;4971055;28;20477;-36
2021/10/13 03:16:28;;;;;;;3.53;1.67;;;9.50;99.90;;;;;;4979187;28;20428;-36
2021/10/13 03:18:55;;;;;;;5.88;1.90;;;9.50;99.90;;;;;;4970695;28;20027;-37
2021/10/13 03:21:25;;;;;;;5.00;1.75;;;9.50;99.90;;;;;;4976680;28;20544;-37
2021/10/13 03:23:51;;;;;;;4.85;2.13;;;9.50;99.90;;;;;;4988584;28;20040;-36
2021/10/13 03:26:16;;;;;;;4.85;1.85;;;9.60;99.90;;;;;;4977072;28;20031;-37
2021/10/13 03:28:42;;;;;;;4.53;1.83;;;9.60;99.90;;;;;;4988132;28;20161;-37
2021/10/13 03:31:08;;;;;;;5.28;1.77;;;9.60;99.90;;;;;;4976529;28;20035;-38
2021/10/13 03:33:36;;;;;;;4.57;1.85;;;9.60;99.90;;;;;;4987479;28;20034;-38
2021/10/13 03:36:03;;;;;;;6.93;2.22;;;9.70;99.90;;;;;;4979329;28;20426;-39
2021/10/13 03:38:29;;;;;;;5.35;1.70;;;9.70;99.90;;;;;;4984963;28;20033;-38
2021/10/13 03:40:56;;;;;;;3.42;1.80;;;9.80;99.90;;;;;;4981484;28;20026;-38
2021/10/13 03:43:22;;;;;;;3.78;1.73;;;9.80;99.90;;;;;;4972377;28;20414;-36
2021/10/13 03:45:47;;;;;;;4.57;2.30;;;9.80;99.90;;;;;;4972972;28;20026;-37
2021/10/13 03:48:13;;;;;;;5.97;2.30;;;9.80;99.90;;;;;;4977406;28;20050;-37
2021/10/13 03:50:38;;;;;;;3.50;2.05;;;9.80;99.90;;;;;;4970279;28;20023;-38
2021/10/13 03:53:04;;;;;;;4.60;2.40;;;9.80;99.90;;;;;;4978904;28;20118;-37
2021/10/13 03:55:30;;;;;;;6.85;1.98;;;9.70;99.90;;;;;;4970067;28;20120;-36
2021/10/13 03:57:55;;;;;;;7.25;2.45;;;9.70;99.90;;;;;;4979902;28;20070;-37
2021/10/13 04:00:22;;;;;;;4.93;2.00;;;9.70;99.90;;;;;;4969173;28;20098;-37
2021/10/13 04:02:48;;;;;;;4.38;2.33;;;9.70;99.90;;;;;;4980701;28;20023;-37
2021/10/13 04:05:15;;;;;;;3.15;1.98;;;9.70;99.90;;;;;;4969923;28;20050;-37
2021/10/13 04:07:41;;;;;;;3.72;1.90;;;9.70;99.90;;;;;;4980433;28;20117;-38
2021/10/13 04:10:09;;;;;;;4.20;1.75;;;9.70;99.90;;;;;;4969540;28;20023;-38
2021/10/13 04:12:35;;;;;;;3.22;2.40;;;9.70;99.90;;;;;;4980304;28;20037;-38
2021/10/13 04:15:03;;;;;;;6.22;2.00;;;9.70;99.90;;;;;;4969922;28;20024;-38
2021/10/13 04:17:28;;;;;;;4.80;1.58;;;9.70;99.90;;;;;;4978400;28;20072;-37
2021/10/13 04:19:54;;;;;;;3.55;1.85;;;9.80;99.90;;;;;;4971513;28;20110;-37
2021/10/13 04:22:19;;;;;;;4.15;1.58;;;9.80;99.90;;;;;;4976759;28;20134;-36
2021/10/13 04:24:51;;;;;;;4.22;1.73;;;9.90;99.90;;;;;;4974500;28;20349;-38
2021/10/13 04:27:23;;;;;;;3.00;1.67;;;9.90;99.90;;;;;;4973907;28;20034;-37
2021/10/13 04:29:48;;;;;;;3.45;1.80;;;9.90;99.90;;;;;;4975056;28;20500;-37
2021/10/13 04:32:14;;;;;;;3.55;2.00;;;9.80;99.90;;;;;;4972717;28;20031;-36
2021/10/13 04:34:39;;;;;;;3.85;2.67;;;9.80;99.90;;;;;;4977601;28;20035;-37
2021/10/13 04:37:08;;;;;;;4.20;2.05;;;9.80;99.90;;;;;;4970513;28;20035;-45
2021/10/13 04:39:34;;;;;;;3.53;2.10;;;9.70;99.90;;;;;;4979894;28;20130;-38
2021/10/13 04:41:59;;;;;;;3.28;2.00;;;9.60;99.90;;;;;;4968787;28;20836;-37
2021/10/13 04:44:25;;;;;;;3.80;1.90;;;9.60;99.90;;;;;;4979671;28;20035;-37
2021/10/13 04:46:50;;;;;;;2.65;1.60;;;9.60;99.90;;;;;;4969573;28;20039;-38
2021/10/13 04:49:16;;;;;;;2.80;1.70;;;9.50;99.90;;;;;;4980472;28;20474;-37
2021/10/13 04:51:41;;;;;;;4.28;1.20;;;9.50;99.90;;;;;;4969067;28;20108;-37
2021/10/13 04:54:07;;;;;;;2.28;1.33;;;9.40;99.90;;;;;;4981239;28;20027;-37
2021/10/13 04:56:32;;;;;;;4.30;1.50;;;9.40;99.90;;;;;;4967724;28;20359;-38
2021/10/13 04:58:58;;;;;;;3.33;1.60;;;9.40;99.90;;;;;;4979280;28;20022;-36
2021/10/13 05:01:23;;;;;;;3.67;1.40;;;9.40;99.90;;;;;;4970390;28;20035;-37
2021/10/13 05:03:49;;;;;;;3.40;1.38;;;9.40;99.90;;;;;;4975538;28;20410;-37
2021/10/13 05:06:14;;;;;;;2.83;1.20;;;9.40;99.90;;;;;;4973204;28;20074;-38
2021/10/13 05:08:40;;;;;;;9.35;1.50;;;9.40;99.90;;;;;;4973810;28;20053;-37
2021/10/13 05:11:05;;;;;;;4.05;1.33;;;9.40;99.90;;;;;;4975217;28;20394;-39
2021/10/13 05:13:31;;;;;;;3.42;1.55;;;9.40;99.90;;;;;;4970607;28;20089;-37
2021/10/13 05:15:56;;;;;;;3.40;1.42;;;9.40;99.90;;;;;;4978159;28;20058;-38
2021/10/13 05:18:22;;;;;;;4.32;1.58;;;9.40;99.90;;;;;;4970030;28;20033;-37
2021/10/13 05:20:48;;;;;;;1.73;1.20;;;9.30;99.90;;;;;;4979684;28;20022;-37
2021/10/13 05:23:13;;;;;;;6.90;1.60;;;9.30;99.90;;;;;;4969165;28;20491;-38
2021/10/13 05:25:39;;;;;;;3.00;1.30;;;9.30;99.90;;;;;;4978874;28;20031;-37
2021/10/13 05:28:04;;;;;;;4.15;1.33;;;9.20;99.90;;;;;;4968475;28;20121;-38
2021/10/13 05:30:30;;;;;;;3.63;1.48;;;9.20;99.90;;;;;;4978798;28;20046;-37
2021/10/13 05:32:56;;;;;;;5.47;1.55;;;9.10;99.90;;;;;;4968255;28;20034;-37
2021/10/13 05:35:21;;;;;;;2.80;1.10;;;9.10;99.90;;;;;;4979544;28;20117;-37
2021/10/13 05:37:47;;;;;;;3.63;1.27;;;9.10;99.90;;;;;;4967750;28;20470;-37
2021/10/13 05:40:15;;;;;;;4.15;1.48;;;9.10;99.90;;;;;;4977028;28;20117;-37
2021/10/13 05:42:40;;;;;;;4.88;1.50;;;9.10;99.90;;;;;;4973733;28;20092;-38
2021/10/13 05:45:06;;;;;;;3.28;1.25;;;9.10;99.90;;;;;;4979592;28;20058;-37
2021/10/13 05:47:32;;;;;;;7.85;2.00;;;9.10;99.90;;;;;;4974991;28;20414;-37
2021/10/13 05:49:57;;;;;;;3.58;1.45;;;9.20;99.90;;;;;;4972077;28;20038;-39
2021/10/13 05:52:23;;;;;;;3.70;1.50;;;9.10;99.90;;;;;;4972700;28;20027;-38
2021/10/13 05:54:49;;;;;;;4.22;1.90;;;9.20;99.90;;;;;;4982159;28;20497;-40
2021/10/13 05:57:14;;;;;;;4.82;2.22;;;9.20;99.90;;;;;;4977928;28;20039;-40
2021/10/13 05:59:41;;;;;;;2.40;1.45;;;9.30;99.90;;;;;;4970875;28;20019;-37
2021/10/13 06:02:07;;;;;;;2.15;1.55;;;9.30;99.90;;;;;;4978523;28;20089;-39
2021/10/13 06:04:33;;;;;;;3.78;1.33;;;9.30;99.90;;;;;;4988582;28;20034;-38
2021/10/13 06:06:58;;;;;;;5.13;2.15;;;9.40;99.90;;;;;;4977636;28;20042;-36
2021/10/13 06:09:24;;;;;;;4.55;1.40;;;9.40;99.90;;;;;;4989289;28;20030;-38
2021/10/13 06:11:49;;;;;;;6.15;1.50;;;9.40;99.90;;;;;;4976971;28;20038;-37
2021/10/13 06:14:15;;;;;;;4.63;1.70;;;9.50;99.90;;;;;;4990037;28;20092;-38
2021/10/13 06:16:40;;;;;;;5.07;1.50;;;9.50;99.90;;;;;;4978722;28;20027;-38
2021/10/13 06:19:06;;;;;;;5.70;1.70;;;9.50;99.90;;;;;;4988532;28;20121;-36
2021/10/13 06:21:31;;;;;;;3.70;1.30;;;9.60;99.90;;;;;;4980084;28;20058;-37
2021/10/13 06:23:57;;;;;;;1.88;1.10;;;9.60;99.90;;;;;;4986944;28;20056;-38
2021/10/13 06:26:22;;;;;;;4.35;1.50;;;9.70;99.90;;;;;;4983435;28;20489;-36
2021/10/13 06:28:49;;;;;;;3.83;1.63;;;9.70;99.90;;;;;;4984203;28;20070;-39
2021/10/13 06:31:15;;;;;;;7.13;2.15;;;9.70;99.90;;;;;;4986098;28;20030;-37
2021/10/13 06:33:41;;;;;;;5.68;1.90;;;9.80;99.90;;;;;;4980146;28;20909;-38
2021/10/13 06:36:07;;;;;;;3.25;1.30;;;9.80;99.90;;;;;;4989086;28;20019;-37
2021/10/13 06:38:34;;;;;;;6.80;1.63;;;9.80;99.90;;;;;;4972862;28;20046;-37
2021/10/13 06:41:06;;;;;;;4.18;1.48;;;9.90;99.90;;;;;;4983780;28;20182;-38
2021/10/13 06:43:31;;;;;;;5.85;1.35;;;9.90;99.90;;;;;;4972139;28;20031;-37
2021/10/13 06:45:57;;;;;;;2.75;1.27;;;10.00;99.90;;;;;;4971391;28;20023;-37
2021/10/13 06:48:22;;;;;;;3.13;1.30;;;10.00;99.90;;;;;;4978149;28;20030;-37
2021/10/13 06:50:50;;;;;;;3.05;1.15;;;10.10;99.90;;;;;;4990278;28;20572;-37
2021/10/13 06:53:16;;;;;;;3.10;1.33;;;10.10;99.90;;;;;;4978153;28;20367;-38
2021/10/13 06:55:42;;;;;;;4.15;1.13;;;10.20;99.90;;;;;;4989627;28;20030;-36
2021/10/13 06:58:08;;;;;;;2.63;1.15;;;10.20;99.90;;;;;;4978226;28;20040;-37
2021/10/13 07:00:34;;;;;;;4.45;1.40;;;10.30;99.90;;;;;;4989302;28;20022;-37
2021/10/13 07:02:59;;;;;;;3.58;1.08;;;10.30;99.90;;;;;;4980206;28;20126;-37
2021/10/13 07:05:25;;;;;;;4.28;1.38;;;10.30;99.90;;;;;;4986531;28;20580;-37
2021/10/13 07:07:50;;;;;;;2.97;1.15;;;10.40;99.90;;;;;;4982381;28;20042;-38
2021/10/13 07:10:17;;;;;;;5.93;1.40;;;10.40;99.90;;;;;;4983662;28;20026;-39
2021/10/13 07:12:44;;;;;;;4.18;1.20;;;10.40;99.90;;;;;;4985416;28;20050;-38
2021/10/13 07:15:10;;;;;;;4.20;1.27;;;10.50;99.90;;;;;;4982700;28;20053;-38
2021/10/13 07:17:36;;;;;;;3.45;1.25;;;10.50;99.90;;;;;;4986417;28;20442;-38
2021/10/13 07:20:06;;;;;;;3.65;1.25;;;10.50;99.90;;;;;;4979593;28;20101;-38
2021/10/13 07:22:32;;;;;;;3.17;1.20;;;10.60;99.90;;;;;;4987553;28;20022;-38
2021/10/13 07:24:58;;;;;;;2.97;1.30;;;10.70;99.90;;;;;;4978931;28;20110;-39
2021/10/13 07:27:25;;;;;;;2.28;1.05;;;10.70;99.90;;;;;;4987889;28;20038;-38
2021/10/13 07:29:58;;;;;;;6.03;1.63;;;10.80;99.90;;;;;;4977513;28;20028;-38
2021/10/13 07:32:27;;;;;;;2.85;1.20;;;10.90;99.90;;;;;;4988928;28;20037;-37
2021/10/13 07:34:53;;;;;;;4.07;1.40;;;10.90;99.90;;;;;;4976535;28;20026;-38
2021/10/13 07:37:20;;;;;;;5.90;1.70;;;11.00;99.90;;;;;;4988613;28;20084;-36
2021/10/13 07:39:46;;;;;;;6.10;1.35;;;11.00;99.90;;;;;;4975334;28;20491;-37
2021/10/13 07:42:13;;;;;;;5.22;1.85;;;11.10;99.90;;;;;;4988815;28;20081;-37
2021/10/13 07:44:39;;;;;;;4.97;1.60;;;11.10;99.90;;;;;;4980764;28;20431;-38
2021/10/13 07:47:04;;;;;;;5.55;1.50;;;11.10;99.90;;;;;;4968953;28;20069;-39
2021/10/13 07:49:30;;;;;;;3.22;1.50;;;11.20;99.90;;;;;;4972385;28;20130;-38
2021/10/13 07:51:58;;;;;;;3.83;1.50;;;11.20;99.90;;;;;;4985378;28;20026;-37
2021/10/13 07:54:24;;;;;;;2.25;1.50;;;11.20;99.90;;;;;;4981042;28;20050;-39
2021/10/13 07:56:50;;;;;;;2.83;1.40;;;11.20;99.90;;;;;;4983333;28;20715;-38
2021/10/13 07:59:15;;;;;;;3.13;1.63;;;11.30;99.90;;;;;;4982806;28;20053;-38
2021/10/13 08:01:41;;;;;;;4.35;1.52;;;11.30;99.90;;;;;;4979649;28;20030;-37
2021/10/13 08:04:07;;;;;;;5.03;1.92;;;11.30;99.90;;;;;;4986445;28;20018;-37
2021/10/13 08:06:32;;;;;;;3.53;1.45;;;11.30;99.90;;;;;;4977028;28;20043;-39
2021/10/13 08:08:58;;;;;;;7.30;1.92;;;11.40;99.90;;;;;;4986780;28;20045;-38
2021/10/13 08:11:24;;;;;;;3.83;1.52;;;11.40;99.90;;;;;;4976720;28;20027;-37
2021/10/13 08:13:49;;;;;;;6.25;1.75;;;11.50;99.90;;;;;;4986711;28;20561;-37
2021/10/13 08:16:15;;;;;;;4.13;1.80;;;11.50;99.90;;;;;;4975351;28;20050;-37
2021/10/13 08:18:41;;;;;;;4.97;1.95;;;11.60;99.90;;;;;;4969527;28;20129;-37
2021/10/13 08:21:06;;;;;;;4.40;1.67;;;11.60;99.90;;;;;;4974177;28;20018;-37
2021/10/13 08:23:32;;;;;;;6.28;2.20;;;11.70;99.90;;;;;;4987770;28;20417;-37
2021/10/13 08:26:00;;;;;;;4.28;1.75;;;11.70;99.90;;;;;;4976099;28;20145;-38
2021/10/13 08:28:27;;;;;;;5.78;1.85;;;11.70;99.90;;;;;;4986832;28;20038;-37
2021/10/13 08:30:52;;;;;;;4.65;1.83;;;11.80;99.90;;;;;;4978453;28;20066;-38
2021/10/13 08:33:18;;;;;;;6.38;1.90;;;11.80;99.90;;;;;;4984035;28;20038;-37
2021/10/13 08:35:44;;;;;;;5.40;2.17;;;11.80;99.90;;;;;;4979380;28;20023;-36
2021/10/13 08:38:09;;;;;;;4.53;2.33;;;11.80;99.90;;;;;;4982089;28;20121;-36
2021/10/13 08:40:35;;;;;;;5.07;2.13;;;11.80;99.90;;;;;;4982508;28;20026;-37
2021/10/13 08:43:02;;;;;;;4.38;1.88;;;11.90;99.90;;;;;;4974854;28;20070;-39
2021/10/13 08:45:32;;;;;;;3.10;1.33;;;11.90;99.90;;;;;;4968673;28;20397;-37
2021/10/13 08:47:58;;;;;;;3.80;1.92;;;11.90;99.90;;;;;;4977591;28;20113;-38
2021/10/13 08:50:26;;;;;;;4.47;1.63;;;12.00;99.90;;;;;;4969160;28;20018;-37
2021/10/13 08:52:53;;;;;;;5.28;1.83;;;12.10;99.90;;;;;;4978844;28;20489;-37
2021/10/13 08:55:19;;;;;;;3.78;1.42;;;12.20;99.90;;;;;;4968619;28;20027;-37
2021/10/13 08:57:45;;;;;;;4.50;1.38;;;12.30;99.90;;;;;;4978566;28;20122;-38
2021/10/13 09:00:21;;;;;;;6.80;1.55;;;12.40;99.90;;;;;;4967933;28;20106;-38
2021/10/13 09:02:47;;;;;;;2.80;1.27;;;12.40;99.90;;;;;;4974804;28;20181;-38
2021/10/13 09:05:17;;;;;;;2.50;1.40;;;12.40;99.90;;;;;;4987612;28;20153;-39
2021/10/13 09:07:55;;;;;;;4.55;1.50;;;12.40;99.90;;;;;;4974716;28;20122;-37
2021/10/13 09:10:32;;;;;;;2.83;1.15;;;12.30;99.90;;;;;;4988031;28;20026;-36
2021/10/13 09:12:59;;;;;;;4.18;1.40;;;12.30;99.90;;;;;;4975193;28;20023;-37
2021/10/13 09:15:27;;;;;;;5.10;1.60;;;12.20;99.90;;;;;;4987082;28;20023;-38
2021/10/13 09:18:00;;;;;;;3.35;1.40;;;12.20;99.90;;;;;;4975394;28;20022;-37
2021/10/13 09:20:29;;;;;;;5.00;1.50;;;12.10;99.90;;;;;;4987356;28;20426;-35
2021/10/13 09:23:17;;;;;;;5.13;1.50;;;12.20;99.90;;;;;;4974858;28;20035;-36
2021/10/13 09:26:00;;;;;;;4.93;1.70;;;12.20;99.90;;;;;;4967706;28;20437;-37
2021/10/13 09:28:26;;;;;;;2.83;1.20;;;12.20;99.90;;;;;;4980119;28;20041;-36
2021/10/13 09:30:51;;;;;;;2.03;1.33;;;12.20;99.90;;;;;;4971715;28;20024;-35
2021/10/13 09:33:19;;;;;;;2.15;1.20;;;12.30;99.90;;;;;;4983710;28;20026;-37
2021/10/13 09:35:47;;;;;;;5.22;1.30;;;12.30;99.90;;;;;;4971353;28;20069;-37
2021/10/13 09:38:21;;;;;;;1.95;1.10;;;12.40;99.90;;;;;;4981009;28;20206;-36
2021/10/13 09:40:48;;;;;;;3.90;1.35;;;12.40;99.90;;;;;;4972351;28;20038;-36
2021/10/13 09:43:46;;;;;;;4.10;1.30;;;12.40;99.90;;;;;;4973144;28;20352;-36
2021/10/13 09:46:14;;;;;;;3.80;1.10;;;12.50;99.90;;;;;;4948818;28;20035;-36
2021/10/13 09:48:42;;;;;;;5.22;1.50;;;12.60;99.90;;;;;;4976444;28;20039;-37
2021/10/13 09:51:20;;;;;;;3.58;1.10;;;12.60;99.90;;;;;;4989008;28;20030;-37
2021/10/13 09:53:48;;;;;;;4.97;1.17;;;12.70;99.90;;;;;;4978457;28;20419;-36
2021/10/13 09:56:37;;;;;;;3.60;1.20;;;12.80;99.90;;;;;;4982314;28;20026;-38
2021/10/13 09:59:22;;;;;;;3.45;0.82;;;12.80;99.90;;;;;;4980958;28;20022;-37
2021/10/13 10:01:57;;;;;;;3.90;0.93;;;12.90;99.90;;;;;;4988543;28;20032;-36
2021/10/13 10:04:26;;;;;;;1.88;0.85;;;13.00;99.90;;;;;;4983742;28;20117;-41
2021/10/13 10:06:57;;;;;;;3.95;1.13;;;13.10;99.90;;;;;;4970478;28;20505;-37
2021/10/13 10:09:25;;;;;;;2.83;1.20;;;13.10;99.90;;;;;;4981126;28;20058;-36
2021/10/13 10:12:08;;;;;;;2.55;1.27;;;13.20;99.90;;;;;;4971084;28;20066;-36
2021/10/13 10:14:37;;;;;;;;;;;13.20;99.90;;;;;;4980841;28;20121;-36
2021/10/13 10:17:05;;;;;;;3.13;1.00;;;13.30;99.90;;;;;;4971398;28;19906;-35
2021/10/13 10:19:39;;;;;;;3.40;1.10;;;13.40;99.90;;;;;;4978428;28;20089;-36
2021/10/13 10:22:13;;;;;;;2.58;1.00;;;13.50;99.90;;;;;;4972586;28;20022;-35
2021/10/13 10:24:46;;;;;;;3.78;1.02;;;13.50;99.90;;;;;;4978537;28;20034;-37
2021/10/13 10:27:27;;;;;;;;;;;13.70;99.90;;;;;;4972565;28;20478;-37
2021/10/13 10:30:07;;;;;;;2.55;0.80;;;13.80;99.90;;;;;;4979066;28;20289;-36
2021/10/13 10:32:34;;;;;;;3.42;1.35;;;13.80;99.90;;;;;;4969923;28;20029;-36
2021/10/13 10:35:06;;;;;;;3.08;0.98;;;13.80;99.90;;;;;;4979519;28;20025;-36
2021/10/13 10:37:48;;;;;;;4.45;1.10;;;13.80;99.90;;;;;;4972384;28;20113;-37
2021/10/13 10:40:41;;;;;;;3.65;0.77;;;13.80;99.90;;;;;;4977873;28;20030;-37
2021/10/13 10:43:24;;;;;;;2.00;0.70;;;13.90;99.90;;;;;;4969957;28;20030;-38
2021/10/13 10:45:54;;;;;;;3.08;0.98;;;14.00;99.90;;;;;;4978287;28;20126;-37
2021/10/13 10:48:21;;;;;;;3.85;0.90;;;14.10;99.90;;;;;;4988992;28;20062;-36
2021/10/13 10:50:52;;;;;;;3.20;0.60;;;14.20;99.90;;;;;;4978549;28;20045;-36
2021/10/13 10:53:31;;;;;;;2.55;0.80;;;14.20;99.90;;;;;;4989250;28;20030;-36
2021/10/13 10:56:01;;;;;;;2.78;0.88;;;14.30;99.90;;;;;;4978749;28;20031;-36
2021/10/13 10:58:31;;;;;;;2.05;0.70;;;14.30;99.90;;;;;;4988283;28;20022;-36
2021/10/13 11:01:04;;;;;;;2.55;0.90;;;14.30;99.90;;;;;;4978681;28;20453;-37
2021/10/13 11:03:36;;;;;;;2.72;0.90;;;14.20;99.90;;;;;;4985602;28;21519;-37
2021/10/13 11:06:15;;;;;;;2.53;0.90;;;14.10;99.90;;;;;;4973806;28;20398;-37
2021/10/13 11:09:11;;;;;;;3.17;1.10;;;14.00;99.90;;;;;;4970780;28;20587;-36
2021/10/13 11:11:41;;;;;;;6.03;1.38;;;13.80;99.90;;;;;;4969588;28;20031;-36
2021/10/13 11:14:10;;;;;;;3.70;1.20;;;13.70;99.90;;;;;;4989043;28;20415;-37
2021/10/13 11:16:38;;;;;;;2.63;1.10;;;13.70;99.90;;;;;;4977241;28;20034;-35
2021/10/13 11:19:15;;;;;;;2.83;1.30;;;13.70;99.90;;;;;;4988301;28;20030;-38
2021/10/13 11:21:41;;;;;;;2.67;1.35;;;13.70;99.90;;;;;;4977558;28;20031;-35
2021/10/13 11:24:08;;;;;;;4.43;1.85;;;13.80;99.90;;;;;;4986580;28;20022;-40
2021/10/13 11:26:34;;;;;;;5.55;1.95;;;13.90;99.90;;;;;;4980914;28;20113;-37
2021/10/13 11:28:59;;;;;;;3.45;1.13;;;14.00;99.90;;;;;;4983318;28;20034;-35
2021/10/13 11:31:26;;;;;;;3.25;1.30;;;14.10;99.90;;;;;;4983632;28;20030;-36
2021/10/13 11:34:07;;;;;;;2.90;1.20;;;14.20;99.90;;;;;;4981693;28;20485;-36
2021/10/13 11:36:33;;;;;;;2.15;0.93;;;14.30;99.90;;;;;;4982913;28;20030;-36
2021/10/13 11:38:58;;;;;;;2.67;0.85;;;14.50;99.90;;;;;;4981252;28;20027;-37
2021/10/13 11:41:24;;;;;;;3.20;0.70;;;14.70;99.90;;;;;;4986033;28;20068;-38
2021/10/13 11:43:49;;;;;;;3.53;0.70;;;14.70;99.90;;;;;;4968309;28;20108;-36
2021/10/13 11:46:16;;;;;;;2.90;0.45;;;14.80;99.90;;;;;;4970817;28;20029;-37
2021/10/13 11:48:42;;;;;;;3.45;0.77;;;14.90;99.50;;;;;;4979083;28;20474;-36
2021/10/13 11:51:10;;;;;;;1.98;0.60;;;14.80;99.80;;;;;;4968610;28;20033;-36
2021/10/13 11:53:36;;;;;;;2.20;0.80;;;14.70;99.90;;;;;;4979760;28;20382;-36
2021/10/13 11:56:10;;;;;;;3.33;0.63;;;14.70;99.90;;;;;;4969712;28;20022;-37
2021/10/13 11:58:39;;;;;;;2.40;0.70;;;14.60;99.90;;;;;;4979875;28;20034;-35
2021/10/13 12:01:05;;;;;;;3.25;0.60;;;14.50;99.90;;;;;;4968954;28;20019;-36
2021/10/13 12:03:32;;;;;;;2.33;0.60;;;14.40;99.90;;;;;;4981228;28;20026;-37
2021/10/13 12:05:59;;;;;;;4.13;1.13;;;14.40;99.90;;;;;;4968677;28;20059;-37
2021/10/13 12:08:28;;;;;;;3.25;0.90;;;14.40;99.90;;;;;;4979719;28;20084;-37
2021/10/13 12:11:07;;;;;;;3.00;0.73;;;14.30;99.90;;;;;;4981787;28;20053;-37
2021/10/13 12:13:36;;;;;;;4.57;0.90;;;14.30;99.90;;;;;;4976528;28;20382;-37
2021/10/13 12:16:07;;;;;;;3.13;0.90;;;14.40;99.90;;;;;;4987679;28;20030;-37
2021/10/13 12:18:35;;;;;;;3.00;0.80;;;14.40;99.90;;;;;;4977319;28;20110;-36
2021/10/13 12:21:00;;;;;;;4.28;0.88;;;14.40;99.90;;;;;;4986409;28;20026;-38
2021/10/13 12:23:26;;;;;;;2.38;0.80;;;14.60;99.90;;;;;;4979788;28;20038;-36
2021/10/13 12:25:52;;;;;;;1.95;0.65;;;14.70;99.90;;;;;;4982836;28;20025;-37
2021/10/13 12:28:27;;;;;;;1.30;0.68;;;14.80;99.90;;;;;;4983056;28;20035;-36
2021/10/13 12:31:02;;;;;;;4.03;1.02;;;14.90;99.90;;;;;;4982272;28;20076;-36
2021/10/13 12:33:57;;;;;;;1.83;0.75;;;14.90;99.90;;;;;;4982350;28;20482;-37
2021/10/13 12:36:52;;;;;;;3.08;1.00;;;15.00;99.90;;;;;;4984123;28;20042;-36
2021/10/13 12:39:23;;;;;;;2.72;1.38;;;15.00;99.90;;;;;;4977256;28;20111;-36
2021/10/13 12:41:50;;;;;;;3.30;1.13;;;15.10;99.90;;;;;;4986819;28;20027;-37
2021/10/13 12:44:24;;;;;;;3.88;1.00;;;15.10;99.90;;;;;;4979504;28;20031;-37
2021/10/13 12:46:54;;;;;;;3.20;1.23;;;15.10;99.90;;;;;;4986182;28;20085;-37
2021/10/13 12:49:50;;;;;;;3.13;1.10;;;15.10;99.90;;;;;;4980302;28;20027;-37
2021/10/13 12:52:21;;;;;;;3.65;1.00;;;15.20;99.90;;;;;;4967766;28;20034;-35
2021/10/13 12:54:48;;;;;;;2.35;0.93;;;15.20;99.20;;;;;;4968801;28;20034;-37
2021/10/13 12:57:17;;;;;;;2.55;0.88;;;15.30;99.50;;;;;;4986318;28;20023;-37
2021/10/13 12:59:43;;;;;;;4.70;0.98;;;15.40;99.50;;;;;;4979475;28;20018;-37
2021/10/13 13:02:09;;;;;;;1.23;0.60;;;15.50;99.50;;;;;;4975616;28;20022;-38